sensor_id;sensor_type;location;lat;lon;timestamp;P1;durP1;ratioP1;P2;durP2;ratioP2
1785;SDS011;890;48.158;11.540;2022-09-03T00:00:51;3.43;;;3.17;;
1785;SDS011;890;48.158;11.540;2022-09-03T00:03:28;3.80;;;3.50;;
1785;SDS011;890;48.158;11.540;2022-09-03T00:11:55;3.60;;;3.30;;
1785;SDS011;890;48.158;11.540;2022-09-03T00:14:46;3.27;;;2.97;;
1785;SDS011;890;48.158;11.540;2022-09-03T00:17:18;3.37;;;3.07;;
1785;SDS011;890;48.158;11.540;2022-09-03T00:19:53;3.00;;;2.80;;
1785;SDS011;890;48.158;11.540;2022-09-03T00:22:26;3.20;;;2.90;;
1785;SDS011;890;48.158;11.540;2022-09-03T00:24:57;3.20;;;3.00;;
1785;SDS011;890;48.158;11.540;2022-09-03T00:27:26;2.97;;;2.77;;
1785;SDS011;890;48.158;11.540;2022-09-03T00:30:12;2.87;;;2.67;;
1785;SDS011;890;48.158;11.540;2022-09-03T00:32:44;3.40;;;3.10;;
1785;SDS011;890;48.158;11.540;2022-09-03T00:35:25;3.33;;;3.03;;
1785;SDS011;890;48.158;11.540;2022-09-03T00:37:57;3.70;;;3.40;;
1785;SDS011;890;48.158;11.540;2022-09-03T00:43:23;4.13;;;3.73;;
1785;SDS011;890;48.158;11.540;2022-09-03T00:51:43;3.53;;;3.23;;
1785;SDS011;890;48.158;11.540;2022-09-03T00:54:37;4.27;;;3.67;;
1785;SDS011;890;48.158;11.540;2022-09-03T01:00:08;4.27;;;3.87;;
1785;SDS011;890;48.158;11.540;2022-09-03T01:11:26;3.77;;;3.47;;
1785;SDS011;890;48.158;11.540;2022-09-03T01:22:02;4.07;;;3.30;;
1785;SDS011;890;48.158;11.540;2022-09-03T01:32:36;4.10;;;3.70;;
1785;SDS011;890;48.158;11.540;2022-09-03T01:40:46;4.13;;;3.73;;
1785;SDS011;890;48.158;11.540;2022-09-03T01:46:21;4.10;;;3.80;;
1785;SDS011;890;48.158;11.540;2022-09-03T01:51:40;4.23;;;3.90;;
1785;SDS011;890;48.158;11.540;2022-09-03T02:00:07;4.60;;;4.20;;
1785;SDS011;890;48.158;11.540;2022-09-03T02:02:37;4.27;;;3.97;;
1785;SDS011;890;48.158;11.540;2022-09-03T02:05:09;4.90;;;3.90;;
1785;SDS011;890;48.158;11.540;2022-09-03T02:07:46;3.80;;;3.50;;
1785;SDS011;890;48.158;11.540;2022-09-03T02:10:14;4.40;;;4.10;;
1785;SDS011;890;48.158;11.540;2022-09-03T02:12:45;4.57;;;4.17;;
1785;SDS011;890;48.158;11.540;2022-09-03T02:15:19;4.27;;;3.97;;
1785;SDS011;890;48.158;11.540;2022-09-03T02:17:47;4.00;;;3.70;;
1785;SDS011;890;48.158;11.540;2022-09-03T02:20:19;3.77;;;3.50;;
1785;SDS011;890;48.158;11.540;2022-09-03T02:22:47;4.23;;;3.87;;
1785;SDS011;890;48.158;11.540;2022-09-03T02:25:13;4.10;;;3.80;;
1785;SDS011;890;48.158;11.540;2022-09-03T02:27:40;4.50;;;4.17;;
1785;SDS011;890;48.158;11.540;2022-09-03T02:30:07;4.83;;;4.40;;
1785;SDS011;890;48.158;11.540;2022-09-03T02:32:33;4.40;;;4.10;;
1785;SDS011;890;48.158;11.540;2022-09-03T02:34:59;4.30;;;3.80;;
1785;SDS011;890;48.158;11.540;2022-09-03T02:37:25;4.50;;;4.10;;
1785;SDS011;890;48.158;11.540;2022-09-03T02:39:50;4.40;;;4.10;;
1785;SDS011;890;48.158;11.540;2022-09-03T02:42:16;5.13;;;4.33;;
1785;SDS011;890;48.158;11.540;2022-09-03T02:44:43;5.60;;;4.27;;
1785;SDS011;890;48.158;11.540;2022-09-03T02:47:28;5.20;;;4.80;;
1785;SDS011;890;48.158;11.540;2022-09-03T02:49:56;4.97;;;4.37;;
1785;SDS011;890;48.158;11.540;2022-09-03T02:52:22;4.97;;;4.37;;
1785;SDS011;890;48.158;11.540;2022-09-03T02:54:47;5.00;;;4.60;;
1785;SDS011;890;48.158;11.540;2022-09-03T02:57:14;4.03;;;3.70;;
1785;SDS011;890;48.158;11.540;2022-09-03T02:59:41;5.87;;;4.00;;
1785;SDS011;890;48.158;11.540;2022-09-03T03:02:09;4.37;;;3.97;;
1785;SDS011;890;48.158;11.540;2022-09-03T03:04:36;5.13;;;4.73;;
1785;SDS011;890;48.158;11.540;2022-09-03T03:07:02;6.20;;;3.83;;
1785;SDS011;890;48.158;11.540;2022-09-03T03:09:28;4.50;;;4.20;;
1785;SDS011;890;48.158;11.540;2022-09-03T03:11:54;4.83;;;4.40;;
1785;SDS011;890;48.158;11.540;2022-09-03T03:14:20;4.47;;;4.10;;
1785;SDS011;890;48.158;11.540;2022-09-03T03:16:46;4.27;;;3.97;;
1785;SDS011;890;48.158;11.540;2022-09-03T03:19:12;4.73;;;4.33;;
1785;SDS011;890;48.158;11.540;2022-09-03T03:21:38;4.23;;;3.90;;
1785;SDS011;890;48.158;11.540;2022-09-03T03:24:04;4.70;;;4.30;;
1785;SDS011;890;48.158;11.540;2022-09-03T03:26:30;7.23;;;4.27;;
1785;SDS011;890;48.158;11.540;2022-09-03T03:28:56;5.00;;;4.57;;
1785;SDS011;890;48.158;11.540;2022-09-03T03:31:23;4.30;;;4.00;;
1785;SDS011;890;48.158;11.540;2022-09-03T03:33:49;5.03;;;4.63;;
1785;SDS011;890;48.158;11.540;2022-09-03T03:36:16;5.40;;;4.83;;
1785;SDS011;890;48.158;11.540;2022-09-03T03:38:43;5.17;;;4.77;;
1785;SDS011;890;48.158;11.540;2022-09-03T03:41:13;4.50;;;4.10;;
1785;SDS011;890;48.158;11.540;2022-09-03T03:43:41;5.00;;;4.60;;
1785;SDS011;890;48.158;11.540;2022-09-03T03:46:07;5.40;;;4.50;;
1785;SDS011;890;48.158;11.540;2022-09-03T03:48:34;4.87;;;4.47;;
1785;SDS011;890;48.158;11.540;2022-09-03T03:51:00;5.30;;;4.90;;
1785;SDS011;890;48.158;11.540;2022-09-03T03:53:32;4.90;;;4.40;;
1785;SDS011;890;48.158;11.540;2022-09-03T03:55:59;4.67;;;4.27;;
1785;SDS011;890;48.158;11.540;2022-09-03T03:58:28;4.80;;;4.33;;
1785;SDS011;890;48.158;11.540;2022-09-03T04:00:55;5.63;;;4.60;;
1785;SDS011;890;48.158;11.540;2022-09-03T04:03:32;4.67;;;4.37;;
1785;SDS011;890;48.158;11.540;2022-09-03T04:05:58;5.10;;;4.70;;
1785;SDS011;890;48.158;11.540;2022-09-03T04:08:26;5.73;;;5.20;;
1785;SDS011;890;48.158;11.540;2022-09-03T04:10:52;5.13;;;4.73;;
1785;SDS011;890;48.158;11.540;2022-09-03T04:13:17;5.00;;;4.50;;
1785;SDS011;890;48.158;11.540;2022-09-03T04:15:43;5.43;;;5.03;;
1785;SDS011;890;48.158;11.540;2022-09-03T04:18:09;5.10;;;4.70;;
1785;SDS011;890;48.158;11.540;2022-09-03T04:20:35;5.57;;;5.07;;
1785;SDS011;890;48.158;11.540;2022-09-03T04:23:01;4.83;;;4.53;;
1785;SDS011;890;48.158;11.540;2022-09-03T04:25:28;5.30;;;4.90;;
1785;SDS011;890;48.158;11.540;2022-09-03T04:27:54;5.33;;;4.93;;
1785;SDS011;890;48.158;11.540;2022-09-03T04:30:19;5.40;;;5.00;;
1785;SDS011;890;48.158;11.540;2022-09-03T04:32:48;4.87;;;4.47;;
1785;SDS011;890;48.158;11.540;2022-09-03T04:35:17;6.07;;;4.90;;
1785;SDS011;890;48.158;11.540;2022-09-03T04:37:45;4.90;;;4.50;;
1785;SDS011;890;48.158;11.540;2022-09-03T04:40:11;5.47;;;4.97;;
1785;SDS011;890;48.158;11.540;2022-09-03T04:42:37;5.00;;;4.70;;
1785;SDS011;890;48.158;11.540;2022-09-03T04:45:02;5.47;;;4.97;;
1785;SDS011;890;48.158;11.540;2022-09-03T04:47:28;5.00;;;4.60;;
1785;SDS011;890;48.158;11.540;2022-09-03T04:49:56;4.50;;;4.10;;
1785;SDS011;890;48.158;11.540;2022-09-03T04:52:21;5.10;;;4.70;;
1785;SDS011;890;48.158;11.540;2022-09-03T04:54:48;4.93;;;4.50;;
1785;SDS011;890;48.158;11.540;2022-09-03T04:57:14;5.23;;;4.73;;
1785;SDS011;890;48.158;11.540;2022-09-03T04:59:40;5.40;;;5.00;;
1785;SDS011;890;48.158;11.540;2022-09-03T05:02:06;5.53;;;5.03;;
1785;SDS011;890;48.158;11.540;2022-09-03T05:04:34;4.50;;;4.17;;
1785;SDS011;890;48.158;11.540;2022-09-03T05:06:59;5.03;;;4.70;;
1785;SDS011;890;48.158;11.540;2022-09-03T05:09:25;4.70;;;4.40;;
1785;SDS011;890;48.158;11.540;2022-09-03T05:11:51;4.60;;;4.23;;
1785;SDS011;890;48.158;11.540;2022-09-03T05:14:16;5.40;;;5.00;;
1785;SDS011;890;48.158;11.540;2022-09-03T05:16:42;5.33;;;4.60;;
1785;SDS011;890;48.158;11.540;2022-09-03T05:19:07;4.77;;;4.27;;
1785;SDS011;890;48.158;11.540;2022-09-03T05:21:34;5.30;;;4.90;;
1785;SDS011;890;48.158;11.540;2022-09-03T05:24:00;5.07;;;4.67;;
1785;SDS011;890;48.158;11.540;2022-09-03T05:26:27;4.90;;;4.60;;
1785;SDS011;890;48.158;11.540;2022-09-03T05:28:56;5.57;;;4.97;;
1785;SDS011;890;48.158;11.540;2022-09-03T05:31:26;5.10;;;4.70;;
1785;SDS011;890;48.158;11.540;2022-09-03T05:33:54;6.83;;;5.00;;
1785;SDS011;890;48.158;11.540;2022-09-03T05:36:22;5.30;;;4.90;;
1785;SDS011;890;48.158;11.540;2022-09-03T05:38:50;5.50;;;5.00;;
1785;SDS011;890;48.158;11.540;2022-09-03T05:41:19;5.17;;;4.73;;
1785;SDS011;890;48.158;11.540;2022-09-03T05:43:47;5.00;;;4.60;;
1785;SDS011;890;48.158;11.540;2022-09-03T05:46:20;6.23;;;4.90;;
1785;SDS011;890;48.158;11.540;2022-09-03T05:48:55;4.80;;;4.40;;
1785;SDS011;890;48.158;11.540;2022-09-03T05:51:22;5.23;;;4.80;;
1785;SDS011;890;48.158;11.540;2022-09-03T05:53:48;5.37;;;4.87;;
1785;SDS011;890;48.158;11.540;2022-09-03T05:56:18;5.27;;;4.87;;
1785;SDS011;890;48.158;11.540;2022-09-03T05:58:49;4.67;;;4.27;;
1785;SDS011;890;48.158;11.540;2022-09-03T06:01:20;7.07;;;5.33;;
1785;SDS011;890;48.158;11.540;2022-09-03T06:03:52;5.80;;;5.30;;
1785;SDS011;890;48.158;11.540;2022-09-03T06:06:19;5.30;;;4.80;;
1785;SDS011;890;48.158;11.540;2022-09-03T06:08:52;5.37;;;4.90;;
1785;SDS011;890;48.158;11.540;2022-09-03T06:11:19;5.43;;;4.93;;
1785;SDS011;890;48.158;11.540;2022-09-03T06:13:47;5.43;;;5.00;;
1785;SDS011;890;48.158;11.540;2022-09-03T06:16:13;5.40;;;5.00;;
1785;SDS011;890;48.158;11.540;2022-09-03T06:18:38;5.40;;;4.90;;
1785;SDS011;890;48.158;11.540;2022-09-03T06:21:05;5.47;;;4.97;;
1785;SDS011;890;48.158;11.540;2022-09-03T06:23:32;5.63;;;5.23;;
1785;SDS011;890;48.158;11.540;2022-09-03T06:25:59;5.50;;;5.00;;
1785;SDS011;890;48.158;11.540;2022-09-03T06:28:29;7.53;;;4.77;;
1785;SDS011;890;48.158;11.540;2022-09-03T06:30:59;5.57;;;5.03;;
1785;SDS011;890;48.158;11.540;2022-09-03T06:33:26;5.97;;;5.20;;
1785;SDS011;890;48.158;11.540;2022-09-03T06:35:54;6.70;;;5.03;;
1785;SDS011;890;48.158;11.540;2022-09-03T06:38:24;8.20;;;5.53;;
1785;SDS011;890;48.158;11.540;2022-09-03T06:40:54;5.80;;;5.27;;
1785;SDS011;890;48.158;11.540;2022-09-03T06:43:21;5.77;;;5.23;;
1785;SDS011;890;48.158;11.540;2022-09-03T06:46:00;6.40;;;4.90;;
1785;SDS011;890;48.158;11.540;2022-09-03T06:48:29;5.37;;;4.90;;
1785;SDS011;890;48.158;11.540;2022-09-03T06:53:23;7.40;;;5.10;;
1785;SDS011;890;48.158;11.540;2022-09-03T06:55:54;5.30;;;4.80;;
1785;SDS011;890;48.158;11.540;2022-09-03T06:58:27;5.53;;;5.13;;
1785;SDS011;890;48.158;11.540;2022-09-03T07:01:01;6.03;;;4.57;;
1785;SDS011;890;48.158;11.540;2022-09-03T07:03:30;5.40;;;5.00;;
1785;SDS011;890;48.158;11.540;2022-09-03T07:06:00;5.43;;;4.93;;
1785;SDS011;890;48.158;11.540;2022-09-03T07:08:33;6.37;;;5.87;;
1785;SDS011;890;48.158;11.540;2022-09-03T07:10:59;6.03;;;5.40;;
1785;SDS011;890;48.158;11.540;2022-09-03T07:13:33;5.77;;;5.27;;
1785;SDS011;890;48.158;11.540;2022-09-03T07:16:06;5.10;;;4.80;;
1785;SDS011;890;48.158;11.540;2022-09-03T07:18:34;5.47;;;4.97;;
1785;SDS011;890;48.158;11.540;2022-09-03T07:21:01;5.83;;;5.30;;
1785;SDS011;890;48.158;11.540;2022-09-03T07:23:29;5.80;;;5.20;;
1785;SDS011;890;48.158;11.540;2022-09-03T07:25:56;7.40;;;5.80;;
1785;SDS011;890;48.158;11.540;2022-09-03T07:28:23;6.17;;;5.57;;
1785;SDS011;890;48.158;11.540;2022-09-03T07:30:52;5.43;;;4.97;;
1785;SDS011;890;48.158;11.540;2022-09-03T07:33:24;5.70;;;5.20;;
1785;SDS011;890;48.158;11.540;2022-09-03T07:35:50;6.03;;;4.97;;
1785;SDS011;890;48.158;11.540;2022-09-03T07:38:17;5.70;;;5.27;;
1785;SDS011;890;48.158;11.540;2022-09-03T07:40:44;5.27;;;4.87;;
1785;SDS011;890;48.158;11.540;2022-09-03T07:43:10;6.13;;;5.50;;
1785;SDS011;890;48.158;11.540;2022-09-03T07:45:37;5.70;;;5.20;;
1785;SDS011;890;48.158;11.540;2022-09-03T07:48:03;5.43;;;5.00;;
1785;SDS011;890;48.158;11.540;2022-09-03T07:50:29;5.80;;;5.30;;
1785;SDS011;890;48.158;11.540;2022-09-03T07:52:58;5.63;;;4.57;;
1785;SDS011;890;48.158;11.540;2022-09-03T07:55:24;5.53;;;5.03;;
1785;SDS011;890;48.158;11.540;2022-09-03T07:57:54;5.03;;;4.53;;
1785;SDS011;890;48.158;11.540;2022-09-03T08:00:20;5.07;;;4.57;;
1785;SDS011;890;48.158;11.540;2022-09-03T08:02:46;5.03;;;4.63;;
1785;SDS011;890;48.158;11.540;2022-09-03T08:05:11;5.37;;;4.90;;
1785;SDS011;890;48.158;11.540;2022-09-03T08:07:37;5.07;;;4.67;;
1785;SDS011;890;48.158;11.540;2022-09-03T08:10:03;5.00;;;4.60;;
1785;SDS011;890;48.158;11.540;2022-09-03T08:12:30;5.40;;;4.90;;
1785;SDS011;890;48.158;11.540;2022-09-03T08:14:56;5.70;;;4.53;;
1785;SDS011;890;48.158;11.540;2022-09-03T08:17:22;9.00;;;5.10;;
1785;SDS011;890;48.158;11.540;2022-09-03T08:19:48;5.43;;;5.00;;
1785;SDS011;890;48.158;11.540;2022-09-03T08:22:14;5.37;;;4.97;;
1785;SDS011;890;48.158;11.540;2022-09-03T08:24:40;6.13;;;5.63;;
1785;SDS011;890;48.158;11.540;2022-09-03T08:27:06;5.97;;;5.37;;
1785;SDS011;890;48.158;11.540;2022-09-03T08:29:32;5.93;;;5.43;;
1785;SDS011;890;48.158;11.540;2022-09-03T08:31:57;8.90;;;5.50;;
1785;SDS011;890;48.158;11.540;2022-09-03T08:34:23;6.20;;;5.57;;
1785;SDS011;890;48.158;11.540;2022-09-03T08:36:49;5.60;;;5.20;;
1785;SDS011;890;48.158;11.540;2022-09-03T08:39:16;6.17;;;5.67;;
1785;SDS011;890;48.158;11.540;2022-09-03T08:49:47;9.70;;;6.27;;
1785;SDS011;890;48.158;11.540;2022-09-03T08:52:37;6.20;;;5.60;;
1785;SDS011;890;48.158;11.540;2022-09-03T09:06:07;6.50;;;5.70;;
1785;SDS011;890;48.158;11.540;2022-09-03T09:11:32;5.87;;;5.37;;
1785;SDS011;890;48.158;11.540;2022-09-03T09:13:58;5.37;;;4.97;;
1785;SDS011;890;48.158;11.540;2022-09-03T09:16:49;5.53;;;5.07;;
1785;SDS011;890;48.158;11.540;2022-09-03T09:24:46;4.30;;;3.90;;
1785;SDS011;890;48.158;11.540;2022-09-03T09:27:15;4.30;;;3.73;;
1785;SDS011;890;48.158;11.540;2022-09-03T09:29:41;6.03;;;3.70;;
1785;SDS011;890;48.158;11.540;2022-09-03T09:32:12;4.03;;;3.57;;
1785;SDS011;890;48.158;11.540;2022-09-03T09:34:41;3.50;;;3.30;;
1785;SDS011;890;48.158;11.540;2022-09-03T09:37:08;3.80;;;3.50;;
1785;SDS011;890;48.158;11.540;2022-09-03T09:39:37;3.53;;;3.13;;
1785;SDS011;890;48.158;11.540;2022-09-03T09:42:04;3.40;;;3.13;;
1785;SDS011;890;48.158;11.540;2022-09-03T09:44:33;3.37;;;3.07;;
1785;SDS011;890;48.158;11.540;2022-09-03T09:47:04;3.33;;;3.03;;
1785;SDS011;890;48.158;11.540;2022-09-03T09:49:50;3.17;;;2.87;;
1785;SDS011;890;48.158;11.540;2022-09-03T09:52:17;3.00;;;2.70;;
1785;SDS011;890;48.158;11.540;2022-09-03T09:54:46;2.90;;;2.70;;
1785;SDS011;890;48.158;11.540;2022-09-03T09:57:15;2.73;;;2.53;;
1785;SDS011;890;48.158;11.540;2022-09-03T09:59:45;3.10;;;2.90;;
1785;SDS011;890;48.158;11.540;2022-09-03T10:04:39;2.60;;;2.40;;
1785;SDS011;890;48.158;11.540;2022-09-03T10:12:33;2.63;;;2.40;;
1785;SDS011;890;48.158;11.540;2022-09-03T10:21:11;2.30;;;2.10;;
1785;SDS011;890;48.158;11.540;2022-09-03T10:24:03;2.83;;;2.63;;
1785;SDS011;890;48.158;11.540;2022-09-03T10:26:56;2.43;;;2.23;;
1785;SDS011;890;48.158;11.540;2022-09-03T10:29:22;3.07;;;2.77;;
1785;SDS011;890;48.158;11.540;2022-09-03T10:50:13;2.27;;;2.17;;
1785;SDS011;890;48.158;11.540;2022-09-03T10:52:50;3.03;;;2.30;;
1785;SDS011;890;48.158;11.540;2022-09-03T10:55:39;2.30;;;2.10;;
1785;SDS011;890;48.158;11.540;2022-09-03T11:04:16;2.67;;;2.47;;
1785;SDS011;890;48.158;11.540;2022-09-03T11:12:08;2.53;;;2.33;;
1785;SDS011;890;48.158;11.540;2022-09-03T11:14:39;2.30;;;2.10;;
1785;SDS011;890;48.158;11.540;2022-09-03T11:17:11;2.20;;;2.00;;
1785;SDS011;890;48.158;11.540;2022-09-03T11:19:50;2.23;;;2.03;;
1785;SDS011;890;48.158;11.540;2022-09-03T11:22:26;1.90;;;1.80;;
1785;SDS011;890;48.158;11.540;2022-09-03T11:24:54;1.83;;;1.70;;
1785;SDS011;890;48.158;11.540;2022-09-03T11:30:14;2.40;;;2.20;;
1785;SDS011;890;48.158;11.540;2022-09-03T11:33:07;2.07;;;1.80;;
1785;SDS011;890;48.158;11.540;2022-09-03T11:38:04;2.40;;;2.20;;
1785;SDS011;890;48.158;11.540;2022-09-03T11:40:58;1.97;;;1.87;;
1785;SDS011;890;48.158;11.540;2022-09-03T11:43:25;2.00;;;1.90;;
1785;SDS011;890;48.158;11.540;2022-09-03T11:46:54;2.10;;;2.00;;
1785;SDS011;890;48.158;11.540;2022-09-03T11:51:35;1.90;;;1.80;;
1785;SDS011;890;48.158;11.540;2022-09-03T11:54:03;1.90;;;1.80;;
1785;SDS011;890;48.158;11.540;2022-09-03T11:56:44;2.03;;;1.93;;
1785;SDS011;890;48.158;11.540;2022-09-03T11:59:23;1.70;;;1.60;;
1785;SDS011;890;48.158;11.540;2022-09-03T12:01:51;1.80;;;1.70;;
1785;SDS011;890;48.158;11.540;2022-09-03T12:04:23;1.70;;;1.60;;
1785;SDS011;890;48.158;11.540;2022-09-03T12:13:06;2.27;;;2.07;;
1785;SDS011;890;48.158;11.540;2022-09-03T12:19:15;2.50;;;2.30;;
1785;SDS011;890;48.158;11.540;2022-09-03T12:21:47;2.60;;;1.93;;
1785;SDS011;890;48.158;11.540;2022-09-03T12:24:13;2.80;;;2.53;;
1785;SDS011;890;48.158;11.540;2022-09-03T12:26:40;2.40;;;2.20;;
1785;SDS011;890;48.158;11.540;2022-09-03T12:29:16;2.30;;;2.20;;
1785;SDS011;890;48.158;11.540;2022-09-03T12:31:49;2.47;;;2.27;;
1785;SDS011;890;48.158;11.540;2022-09-03T12:34:16;2.60;;;2.40;;
1785;SDS011;890;48.158;11.540;2022-09-03T12:36:44;2.23;;;2.03;;
1785;SDS011;890;48.158;11.540;2022-09-03T12:41:55;2.20;;;2.10;;
1785;SDS011;890;48.158;11.540;2022-09-03T12:46:59;2.73;;;2.53;;
1785;SDS011;890;48.158;11.540;2022-09-03T12:49:46;2.80;;;2.60;;
1785;SDS011;890;48.158;11.540;2022-09-03T13:00:07;2.30;;;2.10;;
1785;SDS011;890;48.158;11.540;2022-09-03T13:05:32;2.60;;;2.40;;
1785;SDS011;890;48.158;11.540;2022-09-03T13:08:08;4.03;;;2.67;;
1785;SDS011;890;48.158;11.540;2022-09-03T13:10:39;2.70;;;2.50;;
1785;SDS011;890;48.158;11.540;2022-09-03T13:13:16;3.10;;;2.90;;
1785;SDS011;890;48.158;11.540;2022-09-03T13:15:54;2.20;;;2.00;;
1785;SDS011;890;48.158;11.540;2022-09-03T13:23:57;2.60;;;2.40;;
1785;SDS011;890;48.158;11.540;2022-09-03T13:32:22;3.33;;;2.70;;
1785;SDS011;890;48.158;11.540;2022-09-03T13:34:58;2.60;;;2.40;;
1785;SDS011;890;48.158;11.540;2022-09-03T13:37:36;3.10;;;2.50;;
1785;SDS011;890;48.158;11.540;2022-09-03T13:40:17;4.70;;;2.60;;
1785;SDS011;890;48.158;11.540;2022-09-03T13:48:40;4.00;;;3.37;;
1785;SDS011;890;48.158;11.540;2022-09-03T13:51:27;3.90;;;2.77;;
1785;SDS011;890;48.158;11.540;2022-09-03T13:54:26;3.10;;;2.90;;
1785;SDS011;890;48.158;11.540;2022-09-03T13:57:01;3.50;;;3.23;;
1785;SDS011;890;48.158;11.540;2022-09-03T13:59:43;2.90;;;2.70;;
1785;SDS011;890;48.158;11.540;2022-09-03T14:02:27;3.50;;;3.20;;
1785;SDS011;890;48.158;11.540;2022-09-03T14:13:51;4.20;;;3.33;;
1785;SDS011;890;48.158;11.540;2022-09-03T14:16:46;2.63;;;2.43;;
1785;SDS011;890;48.158;11.540;2022-09-03T14:19:52;2.73;;;2.53;;
1785;SDS011;890;48.158;11.540;2022-09-03T14:25:20;4.03;;;2.60;;
1785;SDS011;890;48.158;11.540;2022-09-03T14:27:47;2.83;;;2.50;;
1785;SDS011;890;48.158;11.540;2022-09-03T14:35:34;4.57;;;3.43;;
1785;SDS011;890;48.158;11.540;2022-09-03T14:38:28;5.37;;;3.10;;
1785;SDS011;890;48.158;11.540;2022-09-03T14:41:21;3.00;;;2.50;;
1785;SDS011;890;48.158;11.540;2022-09-03T14:46:56;4.40;;;3.20;;
1785;SDS011;890;48.158;11.540;2022-09-03T15:00:41;2.50;;;2.30;;
1785;SDS011;890;48.158;11.540;2022-09-03T15:05:55;4.43;;;2.97;;
1785;SDS011;890;48.158;11.540;2022-09-03T15:11:45;4.77;;;3.10;;
1785;SDS011;890;48.158;11.540;2022-09-03T15:14:25;4.07;;;2.90;;
1785;SDS011;890;48.158;11.540;2022-09-03T15:16:55;2.70;;;2.43;;
1785;SDS011;890;48.158;11.540;2022-09-03T15:22:16;3.37;;;2.73;;
1785;SDS011;890;48.158;11.540;2022-09-03T15:27:59;3.77;;;2.93;;
1785;SDS011;890;48.158;11.540;2022-09-03T15:30:38;3.50;;;3.00;;
1785;SDS011;890;48.158;11.540;2022-09-03T15:35:54;6.40;;;3.23;;
1785;SDS011;890;48.158;11.540;2022-09-03T15:40:56;3.90;;;2.30;;
1785;SDS011;890;48.158;11.540;2022-09-03T15:43:30;3.37;;;2.30;;
1785;SDS011;890;48.158;11.540;2022-09-03T15:46:02;4.23;;;3.23;;
1785;SDS011;890;48.158;11.540;2022-09-03T16:01:50;2.60;;;2.40;;
1785;SDS011;890;48.158;11.540;2022-09-03T16:15:14;3.13;;;2.20;;
1785;SDS011;890;48.158;11.540;2022-09-03T16:23:24;3.07;;;2.77;;
1785;SDS011;890;48.158;11.540;2022-09-03T16:26:19;3.17;;;2.80;;
1785;SDS011;890;48.158;11.540;2022-09-03T16:29:05;3.50;;;2.23;;
1785;SDS011;890;48.158;11.540;2022-09-03T16:39:56;2.83;;;2.57;;
1785;SDS011;890;48.158;11.540;2022-09-03T17:07:15;3.23;;;2.47;;
1785;SDS011;890;48.158;11.540;2022-09-03T17:12:52;3.00;;;2.70;;
1785;SDS011;890;48.158;11.540;2022-09-03T17:18:42;2.50;;;2.30;;
1785;SDS011;890;48.158;11.540;2022-09-03T17:21:36;3.43;;;2.63;;
1785;SDS011;890;48.158;11.540;2022-09-03T17:24:36;4.07;;;2.80;;
1785;SDS011;890;48.158;11.540;2022-09-03T17:27:11;2.60;;;2.40;;
1785;SDS011;890;48.158;11.540;2022-09-03T17:29:58;4.27;;;2.63;;
1785;SDS011;890;48.158;11.540;2022-09-03T17:32:52;3.00;;;2.60;;
1785;SDS011;890;48.158;11.540;2022-09-03T17:36:26;2.70;;;2.37;;
1785;SDS011;890;48.158;11.540;2022-09-03T17:38:38;3.40;;;2.80;;
1785;SDS011;890;48.158;11.540;2022-09-03T17:49:25;4.03;;;2.80;;
1785;SDS011;890;48.158;11.540;2022-09-03T17:57:02;4.83;;;3.03;;
1785;SDS011;890;48.158;11.540;2022-09-03T18:05:27;2.30;;;1.97;;
1785;SDS011;890;48.158;11.540;2022-09-03T18:08:17;3.20;;;2.03;;
1785;SDS011;890;48.158;11.540;2022-09-03T18:13:24;2.00;;;1.80;;
1785;SDS011;890;48.158;11.540;2022-09-03T18:18:45;2.47;;;1.83;;
1785;SDS011;890;48.158;11.540;2022-09-03T18:21:22;1.90;;;1.80;;
1785;SDS011;890;48.158;11.540;2022-09-03T18:27:12;2.00;;;1.80;;
1785;SDS011;890;48.158;11.540;2022-09-03T18:30:17;1.80;;;1.60;;
1785;SDS011;890;48.158;11.540;2022-09-03T18:33:02;1.73;;;1.63;;
1785;SDS011;890;48.158;11.540;2022-09-03T18:35:46;1.50;;;1.40;;
1785;SDS011;890;48.158;11.540;2022-09-03T18:38:34;2.10;;;1.80;;
1785;SDS011;890;48.158;11.540;2022-09-03T18:56:51;2.00;;;1.80;;
1785;SDS011;890;48.158;11.540;2022-09-03T19:02:56;2.20;;;1.87;;
1785;SDS011;890;48.158;11.540;2022-09-03T19:12:40;5.20;;;2.00;;
1785;SDS011;890;48.158;11.540;2022-09-03T19:15:51;2.80;;;2.10;;
1785;SDS011;890;48.158;11.540;2022-09-03T19:21:55;2.83;;;2.57;;
1785;SDS011;890;48.158;11.540;2022-09-03T19:25:10;2.47;;;2.23;;
1785;SDS011;890;48.158;11.540;2022-09-03T19:34:22;4.27;;;2.50;;
1785;SDS011;890;48.158;11.540;2022-09-03T19:40:31;2.70;;;2.47;;
1785;SDS011;890;48.158;11.540;2022-09-03T19:46:49;3.30;;;2.23;;
1785;SDS011;890;48.158;11.540;2022-09-03T19:52:55;2.40;;;2.20;;
1785;SDS011;890;48.158;11.540;2022-09-03T19:55:57;2.40;;;2.20;;
1785;SDS011;890;48.158;11.540;2022-09-03T19:58:46;2.17;;;1.97;;
1785;SDS011;890;48.158;11.540;2022-09-03T20:01:37;2.50;;;2.00;;
1785;SDS011;890;48.158;11.540;2022-09-03T20:04:30;2.23;;;2.00;;
1785;SDS011;890;48.158;11.540;2022-09-03T20:07:17;2.63;;;2.33;;
1785;SDS011;890;48.158;11.540;2022-09-03T20:10:03;2.37;;;2.00;;
1785;SDS011;890;48.158;11.540;2022-09-03T20:12:49;2.40;;;2.20;;
1785;SDS011;890;48.158;11.540;2022-09-03T20:15:49;2.47;;;2.07;;
1785;SDS011;890;48.158;11.540;2022-09-03T20:18:53;3.00;;;2.10;;
1785;SDS011;890;48.158;11.540;2022-09-03T20:22:01;2.60;;;2.10;;
1785;SDS011;890;48.158;11.540;2022-09-03T20:27:27;2.23;;;1.93;;
1785;SDS011;890;48.158;11.540;2022-09-03T20:30:05;2.53;;;2.00;;
1785;SDS011;890;48.158;11.540;2022-09-03T20:33:03;2.30;;;2.10;;
1785;SDS011;890;48.158;11.540;2022-09-03T20:35:58;2.37;;;1.90;;
1785;SDS011;890;48.158;11.540;2022-09-03T20:43:52;3.20;;;2.13;;
1785;SDS011;890;48.158;11.540;2022-09-03T20:46:28;3.27;;;2.20;;
1785;SDS011;890;48.158;11.540;2022-09-03T20:52:10;3.47;;;2.10;;
1785;SDS011;890;48.158;11.540;2022-09-03T20:57:20;2.50;;;2.30;;
1785;SDS011;890;48.158;11.540;2022-09-03T20:59:59;2.53;;;2.20;;
1785;SDS011;890;48.158;11.540;2022-09-03T21:11:03;2.43;;;2.23;;
1785;SDS011;890;48.158;11.540;2022-09-03T21:22:20;3.27;;;2.97;;
1785;SDS011;890;48.158;11.540;2022-09-03T21:24:51;2.90;;;2.60;;
1785;SDS011;890;48.158;11.540;2022-09-03T21:27:48;2.50;;;2.27;;
1785;SDS011;890;48.158;11.540;2022-09-03T21:30:32;2.60;;;2.40;;
1785;SDS011;890;48.158;11.540;2022-09-03T21:33:05;2.63;;;2.33;;
1785;SDS011;890;48.158;11.540;2022-09-03T21:35:49;2.53;;;2.33;;
1785;SDS011;890;48.158;11.540;2022-09-03T21:38:26;2.70;;;2.07;;
1785;SDS011;890;48.158;11.540;2022-09-03T21:46:26;2.87;;;2.43;;
1785;SDS011;890;48.158;11.540;2022-09-03T21:48:55;2.37;;;2.17;;
1785;SDS011;890;48.158;11.540;2022-09-03T21:54:04;4.07;;;2.63;;
1785;SDS011;890;48.158;11.540;2022-09-03T21:59:10;3.10;;;2.60;;
1785;SDS011;890;48.158;11.540;2022-09-03T22:02:10;7.27;;;2.50;;
1785;SDS011;890;48.158;11.540;2022-09-03T22:04:45;2.60;;;2.23;;
1785;SDS011;890;48.158;11.540;2022-09-03T22:07:15;3.00;;;2.20;;
1785;SDS011;890;48.158;11.540;2022-09-03T22:09:52;3.40;;;2.27;;
1785;SDS011;890;48.158;11.540;2022-09-03T22:12:31;2.93;;;2.53;;
1785;SDS011;890;48.158;11.540;2022-09-03T22:15:26;2.97;;;2.40;;
1785;SDS011;890;48.158;11.540;2022-09-03T22:17:58;2.37;;;2.13;;
1785;SDS011;890;48.158;11.540;2022-09-03T22:20:30;3.73;;;2.20;;
1785;SDS011;890;48.158;11.540;2022-09-03T22:23:00;3.10;;;2.23;;
1785;SDS011;890;48.158;11.540;2022-09-03T22:25:37;3.03;;;2.40;;
1785;SDS011;890;48.158;11.540;2022-09-03T22:30:47;4.00;;;2.90;;
1785;SDS011;890;48.158;11.540;2022-09-03T22:33:47;2.70;;;2.50;;
1785;SDS011;890;48.158;11.540;2022-09-03T22:38:58;2.67;;;2.47;;
1785;SDS011;890;48.158;11.540;2022-09-03T23:00:19;2.10;;;1.80;;
1785;SDS011;890;48.158;11.540;2022-09-03T23:02:47;1.97;;;1.87;;
1785;SDS011;890;48.158;11.540;2022-09-03T23:05:32;2.30;;;1.70;;
1785;SDS011;890;48.158;11.540;2022-09-03T23:10:50;2.27;;;2.07;;
1785;SDS011;890;48.158;11.540;2022-09-03T23:13:46;2.30;;;2.10;;
1785;SDS011;890;48.158;11.540;2022-09-03T23:16:22;2.77;;;2.00;;
1785;SDS011;890;48.158;11.540;2022-09-03T23:19:09;2.77;;;2.30;;